sensor_id;sensor_type;location;lat;lon;timestamp;pressure;altitude;pressure_sealevel;temperature;humidity
55759;BME280;41678;52.126;20.664;2023-05-09T00:03:29;101644.44;;;5.05;64.86
55759;BME280;41678;52.126;20.664;2023-05-09T00:08:49;101635.56;;;5.00;64.66
55759;BME280;41678;52.126;20.664;2023-05-09T00:14:09;101629.34;;;4.96;64.83
55759;BME280;41678;52.126;20.664;2023-05-09T00:19:31;101624.81;;;4.91;64.96
55759;BME280;41678;52.126;20.664;2023-05-09T00:24:50;101623.84;;;4.87;64.57
55759;BME280;41678;52.126;20.664;2023-05-09T00:30:10;101628.84;;;4.81;65.27
55759;BME280;41678;52.126;20.664;2023-05-09T00:35:30;101624.09;;;4.69;65.34
55759;BME280;41678;52.126;20.664;2023-05-09T00:40:50;101619.56;;;4.63;65.22
55759;BME280;41678;52.126;20.664;2023-05-09T00:46:10;101630.75;;;4.61;64.58
55759;BME280;41678;52.126;20.664;2023-05-09T00:51:31;101622.81;;;4.56;65.22
55759;BME280;41678;52.126;20.664;2023-05-09T00:56:51;101621.03;;;4.55;64.91
55759;BME280;41678;52.126;20.664;2023-05-09T01:02:10;101620.03;;;4.51;64.76
55759;BME280;41678;52.126;20.664;2023-05-09T01:07:58;101625.00;;;4.45;65.00
55759;BME280;41678;52.126;20.664;2023-05-09T01:13:40;101630.91;;;4.39;65.67
55759;BME280;41678;52.126;20.664;2023-05-09T01:25:09;101623.78;;;4.34;64.61
55759;BME280;41678;52.126;20.664;2023-05-09T01:30:33;101614.84;;;4.27;65.22
55759;BME280;41678;52.126;20.664;2023-05-09T01:35:58;101619.03;;;4.23;65.46
55759;BME280;41678;52.126;20.664;2023-05-09T01:41:21;101618.94;;;4.20;65.00
55759;BME280;41678;52.126;20.664;2023-05-09T01:46:42;101620.53;;;4.17;64.81
55759;BME280;41678;52.126;20.664;2023-05-09T01:52:06;101616.06;;;4.13;64.78
55759;BME280;41678;52.126;20.664;2023-05-09T01:57:28;101611.53;;;4.08;65.10
55759;BME280;41678;52.126;20.664;2023-05-09T02:02:49;101596.31;;;3.95;65.24
55759;BME280;41678;52.126;20.664;2023-05-09T02:08:09;101594.66;;;3.97;65.25
55759;BME280;41678;52.126;20.664;2023-05-09T02:13:29;101605.72;;;3.91;65.30
55759;BME280;41678;52.126;20.664;2023-05-09T02:18:49;101602.13;;;3.88;65.45
55759;BME280;41678;52.126;20.664;2023-05-09T02:24:08;101603.59;;;3.81;65.59
55759;BME280;41678;52.126;20.664;2023-05-09T02:29:49;101606.03;;;3.76;65.42
55759;BME280;41678;52.126;20.664;2023-05-09T02:35:10;101610.38;;;3.76;64.94
55759;BME280;41678;52.126;20.664;2023-05-09T02:40:32;101599.78;;;3.71;65.07
55759;BME280;41678;52.126;20.664;2023-05-09T02:45:52;101597.94;;;3.68;65.19
55759;BME280;41678;52.126;20.664;2023-05-09T02:51:12;101601.19;;;3.63;65.29
55759;BME280;41678;52.126;20.664;2023-05-09T02:56:31;101602.00;;;3.62;65.58
55759;BME280;41678;52.126;20.664;2023-05-09T03:01:51;101603.56;;;3.57;65.62
55759;BME280;41678;52.126;20.664;2023-05-09T03:07:10;101597.41;;;3.54;65.47
55759;BME280;41678;52.126;20.664;2023-05-09T03:12:30;101605.13;;;3.51;65.15
55759;BME280;41678;52.126;20.664;2023-05-09T03:17:50;101594.56;;;3.48;65.18
55759;BME280;41678;52.126;20.664;2023-05-09T03:23:10;101592.78;;;3.47;65.58
55759;BME280;41678;52.126;20.664;2023-05-09T03:28:30;101598.78;;;3.45;65.48
55759;BME280;41678;52.126;20.664;2023-05-09T03:33:54;101603.03;;;3.43;65.61
55759;BME280;41678;52.126;20.664;2023-05-09T03:39:15;101604.75;;;3.42;66.08
55759;BME280;41678;52.126;20.664;2023-05-09T03:44:38;101609.09;;;3.42;65.99
55759;BME280;41678;52.126;20.664;2023-05-09T03:49:57;101606.53;;;3.43;65.80
55759;BME280;41678;52.126;20.664;2023-05-09T03:55:17;101613.63;;;3.47;66.08
55759;BME280;41678;52.126;20.664;2023-05-09T04:00:37;101609.38;;;3.49;65.71
55759;BME280;41678;52.126;20.664;2023-05-09T04:06:04;101613.97;;;3.57;67.30
55759;BME280;41678;52.126;20.664;2023-05-09T04:11:28;101605.69;;;3.67;67.74
55759;BME280;41678;52.126;20.664;2023-05-09T04:16:49;101610.38;;;3.76;67.18
55759;BME280;41678;52.126;20.664;2023-05-09T04:22:09;101615.03;;;3.85;67.10
55759;BME280;41678;52.126;20.664;2023-05-09T04:27:29;101612.75;;;3.94;67.09
55759;BME280;41678;52.126;20.664;2023-05-09T04:32:49;101631.47;;;4.06;67.00
55759;BME280;41678;52.126;20.664;2023-05-09T04:38:09;101618.97;;;4.22;67.51
55759;BME280;41678;52.126;20.664;2023-05-09T04:43:29;101614.19;;;4.33;67.56
55759;BME280;41678;52.126;20.664;2023-05-09T04:48:49;101618.94;;;4.45;67.65
55759;BME280;41678;52.126;20.664;2023-05-09T04:54:09;101616.78;;;4.59;67.49
55759;BME280;41678;52.126;20.664;2023-05-09T04:59:31;101609.44;;;4.73;67.05
55759;BME280;41678;52.126;20.664;2023-05-09T05:04:51;101617.88;;;4.91;66.88
55759;BME280;41678;52.126;20.664;2023-05-09T05:10:11;101616.72;;;5.09;67.12
55759;BME280;41678;52.126;20.664;2023-05-09T05:15:34;101606.84;;;5.28;67.40
55759;BME280;41678;52.126;20.664;2023-05-09T05:20:55;101611.06;;;5.51;67.62
55759;BME280;41678;52.126;20.664;2023-05-09T05:26:15;101611.69;;;5.72;67.47
55759;BME280;41678;52.126;20.664;2023-05-09T05:31:35;101614.06;;;5.94;67.31
55759;BME280;41678;52.126;20.664;2023-05-09T05:36:55;101613.91;;;6.19;67.37
55759;BME280;41678;52.126;20.664;2023-05-09T05:42:16;101620.88;;;6.50;67.90
55759;BME280;41678;52.126;20.664;2023-05-09T05:47:37;101605.00;;;6.78;67.60
55759;BME280;41678;52.126;20.664;2023-05-09T05:52:57;101605.63;;;7.03;67.47
55759;BME280;41678;52.126;20.664;2023-05-09T05:58:17;101599.09;;;7.23;67.43
55759;BME280;41678;52.126;20.664;2023-05-09T06:03:37;101605.88;;;7.52;67.24
55759;BME280;41678;52.126;20.664;2023-05-09T06:08:59;101603.66;;;7.72;67.27
55759;BME280;41678;52.126;20.664;2023-05-09T06:14:18;101605.03;;;7.96;67.20
55759;BME280;41678;52.126;20.664;2023-05-09T06:19:38;101609.03;;;8.21;66.69
55759;BME280;41678;52.126;20.664;2023-05-09T06:24:58;101611.16;;;8.41;66.78
55759;BME280;41678;52.126;20.664;2023-05-09T06:30:17;101602.81;;;8.62;66.83
55759;BME280;41678;52.126;20.664;2023-05-09T06:35:37;101607.59;;;8.85;66.70
55759;BME280;41678;52.126;20.664;2023-05-09T06:40:57;101608.00;;;9.10;66.40
55759;BME280;41678;52.126;20.664;2023-05-09T06:46:16;101601.44;;;9.40;65.65
55759;BME280;41678;52.126;20.664;2023-05-09T06:51:36;101597.44;;;9.70;65.68
55759;BME280;41678;52.126;20.664;2023-05-09T06:56:56;101596.91;;;9.95;65.68
55759;BME280;41678;52.126;20.664;2023-05-09T07:02:15;101604.22;;;10.22;65.23
55759;BME280;41678;52.126;20.664;2023-05-09T07:07:35;101587.91;;;10.54;63.95
55759;BME280;41678;52.126;20.664;2023-05-09T07:12:55;101591.63;;;10.78;63.75
55759;BME280;41678;52.126;20.664;2023-05-09T07:18:14;101595.38;;;11.10;63.15
55759;BME280;41678;52.126;20.664;2023-05-09T07:23:34;101582.38;;;11.36;61.49
55759;BME280;41678;52.126;20.664;2023-05-09T07:28:53;101585.13;;;11.56;61.06
55759;BME280;41678;52.126;20.664;2023-05-09T07:34:15;101579.97;;;11.78;60.79
55759;BME280;41678;52.126;20.664;2023-05-09T07:39:35;101569.44;;;11.95;61.63
55759;BME280;41678;52.126;20.664;2023-05-09T07:44:54;101570.44;;;12.16;59.86
55759;BME280;41678;52.126;20.664;2023-05-09T07:50:15;101559.94;;;12.44;59.19
55759;BME280;41678;52.126;20.664;2023-05-09T07:55:35;101562.56;;;12.64;56.06
55759;BME280;41678;52.126;20.664;2023-05-09T08:00:55;101558.16;;;12.83;55.16
55759;BME280;41678;52.126;20.664;2023-05-09T08:06:15;101551.97;;;12.95;56.64
55759;BME280;41678;52.126;20.664;2023-05-09T08:11:35;101544.00;;;13.15;55.54
55759;BME280;41678;52.126;20.664;2023-05-09T08:16:55;101552.78;;;13.38;53.52
55759;BME280;41678;52.126;20.664;2023-05-09T08:22:18;101546.59;;;13.46;53.91
55759;BME280;41678;52.126;20.664;2023-05-09T08:27:38;101534.22;;;13.63;52.05
55759;BME280;41678;52.126;20.664;2023-05-09T08:32:57;101533.31;;;13.65;51.84
55759;BME280;41678;52.126;20.664;2023-05-09T08:38:30;101528.81;;;13.81;53.57
55759;BME280;41678;52.126;20.664;2023-05-09T08:43:51;101517.25;;;13.99;52.58
55759;BME280;41678;52.126;20.664;2023-05-09T08:49:10;101516.34;;;14.05;49.89
55759;BME280;41678;52.126;20.664;2023-05-09T08:54:30;101505.66;;;14.17;49.61
55759;BME280;41678;52.126;20.664;2023-05-09T08:59:50;101516.19;;;14.25;50.26
55759;BME280;41678;52.126;20.664;2023-05-09T09:05:11;101509.06;;;14.35;51.28
55759;BME280;41678;52.126;20.664;2023-05-09T09:10:31;101492.22;;;14.44;51.88
55759;BME280;41678;52.126;20.664;2023-05-09T09:15:52;101489.47;;;14.55;51.25
55759;BME280;41678;52.126;20.664;2023-05-09T09:21:14;101485.91;;;14.61;51.23
55759;BME280;41678;52.126;20.664;2023-05-09T09:26:45;101486.69;;;14.73;51.19
55759;BME280;41678;52.126;20.664;2023-05-09T09:32:05;101478.69;;;14.77;49.05
55759;BME280;41678;52.126;20.664;2023-05-09T09:37:25;101461.81;;;14.89;49.59
55759;BME280;41678;52.126;20.664;2023-05-09T09:42:46;101483.78;;;14.97;49.68
55759;BME280;41678;52.126;20.664;2023-05-09T09:48:06;101474.03;;;14.99;49.58
55759;BME280;41678;52.126;20.664;2023-05-09T09:53:26;101465.09;;;15.08;48.34
55759;BME280;41678;52.126;20.664;2023-05-09T09:58:48;101471.25;;;15.13;46.99
55759;BME280;41678;52.126;20.664;2023-05-09T10:04:14;101465.91;;;15.14;46.68
55759;BME280;41678;52.126;20.664;2023-05-09T10:09:34;101458.75;;;15.21;48.11
55759;BME280;41678;52.126;20.664;2023-05-09T10:14:56;101461.31;;;15.29;48.24
55759;BME280;41678;52.126;20.664;2023-05-09T10:20:16;101454.31;;;15.25;46.36
55759;BME280;41678;52.126;20.664;2023-05-09T10:25:46;101441.03;;;15.26;46.75
55759;BME280;41678;52.126;20.664;2023-05-09T10:31:11;101442.63;;;15.37;46.25
55759;BME280;41678;52.126;20.664;2023-05-09T10:36:33;101438.13;;;15.45;45.24
55759;BME280;41678;52.126;20.664;2023-05-09T10:41:53;101436.22;;;15.53;45.52
55759;BME280;41678;52.126;20.664;2023-05-09T10:47:14;101422.94;;;15.55;46.89
55759;BME280;41678;52.126;20.664;2023-05-09T10:52:34;101407.88;;;15.57;47.25
55759;BME280;41678;52.126;20.664;2023-05-09T10:58:24;101411.31;;;15.65;47.21
55759;BME280;41678;52.126;20.664;2023-05-09T11:03:54;101397.13;;;15.66;46.69
55759;BME280;41678;52.126;20.664;2023-05-09T11:09:33;101393.63;;;15.64;44.24
55759;BME280;41678;52.126;20.664;2023-05-09T11:15:03;101386.50;;;15.66;44.72
55759;BME280;41678;52.126;20.664;2023-05-09T11:20:26;101377.72;;;15.61;43.09
55759;BME280;41678;52.126;20.664;2023-05-09T11:25:47;101367.19;;;15.56;43.60
55759;BME280;41678;52.126;20.664;2023-05-09T11:31:17;101364.38;;;15.66;45.72
55759;BME280;41678;52.126;20.664;2023-05-09T11:36:41;101343.16;;;15.66;45.58
55759;BME280;41678;52.126;20.664;2023-05-09T11:42:02;101339.59;;;15.67;45.81
55759;BME280;41678;52.126;20.664;2023-05-09T11:47:23;101336.09;;;15.65;43.83
55759;BME280;41678;52.126;20.664;2023-05-09T11:52:44;101330.97;;;15.52;41.92
55759;BME280;41678;52.126;20.664;2023-05-09T11:58:06;101328.16;;;15.63;44.47
55759;BME280;41678;52.126;20.664;2023-05-09T12:03:26;101337.09;;;15.56;42.71
55759;BME280;41678;52.126;20.664;2023-05-09T12:08:46;101316.88;;;15.49;42.68
55759;BME280;41678;52.126;20.664;2023-05-09T12:14:06;101308.81;;;15.55;44.41
55759;BME280;41678;52.126;20.664;2023-05-09T12:19:26;101307.97;;;15.54;44.43
55759;BME280;41678;52.126;20.664;2023-05-09T12:24:48;101301.69;;;15.57;44.67
55759;BME280;41678;52.126;20.664;2023-05-09T12:30:08;101293.81;;;15.52;43.22
55759;BME280;41678;52.126;20.664;2023-05-09T12:35:32;101289.38;;;15.53;44.00
55759;BME280;41678;52.126;20.664;2023-05-09T12:41:09;101280.53;;;15.54;44.07
55759;BME280;41678;52.126;20.664;2023-05-09T12:46:30;101269.97;;;15.51;44.41
55759;BME280;41678;52.126;20.664;2023-05-09T12:51:50;101273.47;;;15.53;43.68
55759;BME280;41678;52.126;20.664;2023-05-09T12:57:20;101260.28;;;15.47;43.35
55759;BME280;41678;52.126;20.664;2023-05-09T13:02:41;101251.47;;;15.46;43.83
55759;BME280;41678;52.126;20.664;2023-05-09T13:08:01;101247.00;;;15.47;43.87
55759;BME280;41678;52.126;20.664;2023-05-09T13:13:23;101232.09;;;15.41;43.97
55759;BME280;41678;52.126;20.664;2023-05-09T13:18:44;101236.38;;;15.48;45.48
55759;BME280;41678;52.126;20.664;2023-05-09T13:24:05;101231.91;;;15.52;44.08
55759;BME280;41678;52.126;20.664;2023-05-09T13:29:24;101222.22;;;15.49;44.58
55759;BME280;41678;52.126;20.664;2023-05-09T13:34:44;101217.09;;;15.38;43.38
55759;BME280;41678;52.126;20.664;2023-05-09T13:40:05;101216.97;;;15.44;42.75
55759;BME280;41678;52.126;20.664;2023-05-09T13:45:25;101201.06;;;15.44;43.19
55759;BME280;41678;52.126;20.664;2023-05-09T13:50:45;101201.19;;;15.37;42.45
55759;BME280;41678;52.126;20.664;2023-05-09T13:56:06;101201.09;;;15.41;44.28
55759;BME280;41678;52.126;20.664;2023-05-09T14:01:27;101190.50;;;15.41;44.44
55759;BME280;41678;52.126;20.664;2023-05-09T14:06:47;101187.91;;;15.38;43.81
55759;BME280;41678;52.126;20.664;2023-05-09T14:12:08;101175.56;;;15.36;43.00
55759;BME280;41678;52.126;20.664;2023-05-09T14:17:28;101175.41;;;15.43;43.76
55759;BME280;41678;52.126;20.664;2023-05-09T14:22:47;101177.31;;;15.37;43.37
55759;BME280;41678;52.126;20.664;2023-05-09T14:28:07;101166.63;;;15.41;44.54
55759;BME280;41678;52.126;20.664;2023-05-09T14:33:27;101156.06;;;15.37;44.92
55759;BME280;41678;52.126;20.664;2023-05-09T14:38:47;101156.91;;;15.39;45.15
55759;BME280;41678;52.126;20.664;2023-05-09T14:44:07;101160.47;;;15.38;43.81
55759;BME280;41678;52.126;20.664;2023-05-09T14:49:26;101159.69;;;15.33;44.42
55759;BME280;41678;52.126;20.664;2023-05-09T14:54:46;101144.69;;;15.30;44.48
55759;BME280;41678;52.126;20.664;2023-05-09T15:00:06;101141.13;;;15.31;43.51
55759;BME280;41678;52.126;20.664;2023-05-09T15:05:26;101143.06;;;15.23;42.32
55759;BME280;41678;52.126;20.664;2023-05-09T15:10:46;101134.34;;;15.14;40.82
55759;BME280;41678;52.126;20.664;2023-05-09T15:16:06;101123.59;;;15.24;42.82
55759;BME280;41678;52.126;20.664;2023-05-09T15:21:27;101128.00;;;15.23;43.54
55759;BME280;41678;52.126;20.664;2023-05-09T15:26:47;101117.50;;;15.19;42.20
55759;BME280;41678;52.126;20.664;2023-05-09T15:32:07;101117.59;;;15.12;41.00
55759;BME280;41678;52.126;20.664;2023-05-09T15:37:26;101108.59;;;15.21;41.86
55759;BME280;41678;52.126;20.664;2023-05-09T15:42:46;101106.13;;;15.12;42.08
55759;BME280;41678;52.126;20.664;2023-05-09T15:48:06;101106.13;;;15.10;42.55
55759;BME280;41678;52.126;20.664;2023-05-09T15:53:26;101091.25;;;15.03;40.78
55759;BME280;41678;52.126;20.664;2023-05-09T15:58:47;101092.09;;;15.04;40.90
55759;BME280;41678;52.126;20.664;2023-05-09T16:04:10;101092.09;;;15.05;41.06
55759;BME280;41678;52.126;20.664;2023-05-09T16:09:30;101081.47;;;15.05;41.31
55759;BME280;41678;52.126;20.664;2023-05-09T16:14:51;101073.59;;;15.02;40.94
55759;BME280;41678;52.126;20.664;2023-05-09T16:20:11;101067.25;;;15.09;42.14
55759;BME280;41678;52.126;20.664;2023-05-09T16:25:32;101061.06;;;15.09;41.93
55759;BME280;41678;52.126;20.664;2023-05-09T16:30:52;101060.16;;;15.11;41.95
55759;BME280;41678;52.126;20.664;2023-05-09T16:36:12;101060.22;;;15.07;41.68
55759;BME280;41678;52.126;20.664;2023-05-09T16:41:32;101043.31;;;15.12;42.41
55759;BME280;41678;52.126;20.664;2023-05-09T16:46:51;101047.69;;;15.17;42.02
55759;BME280;41678;52.126;20.664;2023-05-09T16:52:11;101045.81;;;15.22;42.32
55759;BME280;41678;52.126;20.664;2023-05-09T16:57:31;101034.97;;;15.34;42.77
55759;BME280;41678;52.126;20.664;2023-05-09T17:02:51;101030.44;;;15.41;42.28
55759;BME280;41678;52.126;20.664;2023-05-09T17:08:12;101040.00;;;15.47;41.30
55759;BME280;41678;52.126;20.664;2023-05-09T17:13:32;101026.81;;;15.43;41.28
55759;BME280;41678;52.126;20.664;2023-05-09T17:19:04;101022.41;;;15.42;41.87
55759;BME280;41678;52.126;20.664;2023-05-09T17:24:24;101025.28;;;15.33;41.81
55759;BME280;41678;52.126;20.664;2023-05-09T17:29:44;101022.78;;;15.24;42.00
55759;BME280;41678;52.126;20.664;2023-05-09T17:35:03;101021.28;;;15.09;42.01
55759;BME280;41678;52.126;20.664;2023-05-09T17:40:24;101030.28;;;15.01;42.51
55759;BME280;41678;52.126;20.664;2023-05-09T17:45:44;101023.63;;;14.77;42.38
55759;BME280;41678;52.126;20.664;2023-05-09T17:51:04;101024.72;;;14.62;42.81
55759;BME280;41678;52.126;20.664;2023-05-09T17:56:24;101017.00;;;14.48;43.15
55759;BME280;41678;52.126;20.664;2023-05-09T18:01:43;101017.13;;;14.39;43.80
55759;BME280;41678;52.126;20.664;2023-05-09T18:07:02;101020.97;;;14.19;43.80
55759;BME280;41678;52.126;20.664;2023-05-09T18:12:22;101016.69;;;14.09;44.45
55759;BME280;41678;52.126;20.664;2023-05-09T18:17:43;101016.91;;;13.95;44.69
55759;BME280;41678;52.126;20.664;2023-05-09T18:23:10;101023.25;;;13.83;45.29
55759;BME280;41678;52.126;20.664;2023-05-09T18:28:29;101032.19;;;13.72;45.78
55759;BME280;41678;52.126;20.664;2023-05-09T18:33:50;101018.22;;;13.61;46.26
55759;BME280;41678;52.126;20.664;2023-05-09T18:39:09;101028.13;;;13.45;46.70
55759;BME280;41678;52.126;20.664;2023-05-09T18:44:30;101023.84;;;13.30;47.12
55759;BME280;41678;52.126;20.664;2023-05-09T18:49:50;101026.66;;;13.16;47.57
55759;BME280;41678;52.126;20.664;2023-05-09T18:55:11;101027.66;;;13.01;47.76
55759;BME280;41678;52.126;20.664;2023-05-09T19:00:31;101015.50;;;12.84;48.14
55759;BME280;41678;52.126;20.664;2023-05-09T19:05:53;101024.44;;;12.69;47.93
55759;BME280;41678;52.126;20.664;2023-05-09T19:11:22;101028.09;;;12.51;48.09
55759;BME280;41678;52.126;20.664;2023-05-09T19:16:43;101021.16;;;12.38;48.57
55759;BME280;41678;52.126;20.664;2023-05-09T19:22:03;101016.88;;;12.23;48.71
55759;BME280;41678;52.126;20.664;2023-05-09T19:27:23;101032.75;;;12.13;48.69
55759;BME280;41678;52.126;20.664;2023-05-09T19:32:43;101019.63;;;12.02;49.22
55759;BME280;41678;52.126;20.664;2023-05-09T19:38:19;101018.78;;;11.89;49.01
55759;BME280;41678;52.126;20.664;2023-05-09T19:43:39;101017.09;;;11.76;49.49
55759;BME280;41678;52.126;20.664;2023-05-09T19:48:59;101018.88;;;11.68;49.64
55759;BME280;41678;52.126;20.664;2023-05-09T19:54:24;101014.53;;;11.59;49.46
55759;BME280;41678;52.126;20.664;2023-05-09T19:59:43;101008.44;;;11.46;50.13
55759;BME280;41678;52.126;20.664;2023-05-09T20:05:05;101016.38;;;11.33;49.70
55759;BME280;41678;52.126;20.664;2023-05-09T20:10:25;101014.66;;;11.25;50.23
55759;BME280;41678;52.126;20.664;2023-05-09T20:15:47;101014.66;;;11.17;49.87
55759;BME280;41678;52.126;20.664;2023-05-09T20:21:06;101006.75;;;11.11;50.23
55759;BME280;41678;52.126;20.664;2023-05-09T20:26:28;101003.25;;;11.04;50.49
55759;BME280;41678;52.126;20.664;2023-05-09T20:31:48;101006.81;;;10.94;50.27
55759;BME280;41678;52.126;20.664;2023-05-09T20:37:07;101010.34;;;10.80;50.80
55759;BME280;41678;52.126;20.664;2023-05-09T20:42:27;101005.94;;;10.73;50.79
55759;BME280;41678;52.126;20.664;2023-05-09T20:47:47;101001.53;;;10.67;50.66
55759;BME280;41678;52.126;20.664;2023-05-09T20:53:06;101003.31;;;10.54;51.14
55759;BME280;41678;52.126;20.664;2023-05-09T20:58:33;101002.44;;;10.49;50.76
55759;BME280;41678;52.126;20.664;2023-05-09T21:03:53;101004.19;;;10.42;50.86
55759;BME280;41678;52.126;20.664;2023-05-09T21:09:13;100996.25;;;10.30;51.07
55759;BME280;41678;52.126;20.664;2023-05-09T21:14:33;100998.88;;;10.27;50.91
55759;BME280;41678;52.126;20.664;2023-05-09T21:19:52;100994.50;;;10.21;51.25
55759;BME280;41678;52.126;20.664;2023-05-09T21:25:12;101003.22;;;10.11;51.39
55759;BME280;41678;52.126;20.664;2023-05-09T21:30:32;100996.19;;;10.00;51.15
55759;BME280;41678;52.126;20.664;2023-05-09T21:35:51;100992.69;;;9.89;51.25
55759;BME280;41678;52.126;20.664;2023-05-09T21:41:11;100989.16;;;9.85;51.59
55759;BME280;41678;52.126;20.664;2023-05-09T21:46:31;100989.97;;;9.70;51.77
55759;BME280;41678;52.126;20.664;2023-05-09T21:51:53;100991.75;;;9.70;51.76
55759;BME280;41678;52.126;20.664;2023-05-09T21:57:13;100994.31;;;9.57;51.57
55759;BME280;41678;52.126;20.664;2023-05-09T22:02:32;100984.66;;;9.50;52.09
55759;BME280;41678;52.126;20.664;2023-05-09T22:07:52;100995.16;;;9.42;52.18
55759;BME280;41678;52.126;20.664;2023-05-09T22:13:11;100981.06;;;9.34;51.82
55759;BME280;41678;52.126;20.664;2023-05-09T22:18:31;100992.44;;;9.30;51.91
55759;BME280;41678;52.126;20.664;2023-05-09T22:23:51;100986.28;;;9.20;52.10
55759;BME280;41678;52.126;20.664;2023-05-09T22:29:11;100984.47;;;9.11;52.47
55759;BME280;41678;52.126;20.664;2023-05-09T22:34:30;100979.19;;;9.03;52.75
55759;BME280;41678;52.126;20.664;2023-05-09T22:39:50;100982.59;;;8.91;52.73
55759;BME280;41678;52.126;20.664;2023-05-09T22:45:09;100974.66;;;8.87;52.52
55759;BME280;41678;52.126;20.664;2023-05-09T22:50:29;100975.53;;;8.81;52.69
55759;BME280;41678;52.126;20.664;2023-05-09T22:55:48;100965.84;;;8.77;52.29
55759;BME280;41678;52.126;20.664;2023-05-09T23:01:09;100962.34;;;8.73;52.64
55759;BME280;41678;52.126;20.664;2023-05-09T23:06:29;100957.94;;;8.68;52.58
55759;BME280;41678;52.126;20.664;2023-05-09T23:11:49;100959.63;;;8.62;52.77
55759;BME280;41678;52.126;20.664;2023-05-09T23:17:08;100957.84;;;8.58;52.67
55759;BME280;41678;52.126;20.664;2023-05-09T23:22:28;100959.56;;;8.50;53.00
55759;BME280;41678;52.126;20.664;2023-05-09T23:27:49;100962.94;;;8.43;52.91
55759;BME280;41678;52.126;20.664;2023-05-09T23:33:09;100957.66;;;8.36;52.67
55759;BME280;41678;52.126;20.664;2023-05-09T23:38:29;100953.22;;;8.29;52.95
55759;BME280;41678;52.126;20.664;2023-05-09T23:43:48;100951.41;;;8.23;53.34
55759;BME280;41678;52.126;20.664;2023-05-09T23:49:08;100943.47;;;8.16;53.20
55759;BME280;41678;52.126;20.664;2023-05-09T23:54:28;100939.06;;;8.10;53.20
55759;BME280;41678;52.126;20.664;2023-05-09T23:59:47;100939.88;;;8.03;53.34
